EDT,Max TemperatureF,Mean TemperatureF,Min TemperatureF,Max Dew PointF,MeanDew PointF,Min DewpointF,Max Humidity, Mean Humidity, Min Humidity, Max Sea Level PressureIn, Mean Sea Level PressureIn, Min Sea Level PressureIn, Max VisibilityMiles, Mean VisibilityMiles, Min VisibilityMiles, Max Wind SpeedMPH, Mean Wind SpeedMPH, Max Gust SpeedMPH,PrecipitationIn, CloudCover, Events, WindDirDegrees
2012-10-1,80,72,64,72,67,61,94,88,72,29.93,29.89,29.86,10,8,2,9,5,20,0.17,7,Rain,73
2012-10-2,82,76,71,76,74,71,100,89,79,30.02,29.91,29.86,10,8,2,18,5,30,0.11,5,Rain-Thunderstorm,174
2012-10-3,84,78,73,75,73,71,94,86,74,30.20,30.10,30.03,10,8,2,17,7,24,0.14,5,Rain,209
2012-10-4,84,77,70,72,68,66,93,78,55,30.24,30.19,30.16,10,9,5,8,5,,0.01,3,,279
2012-10-5,82,73,63,65,61,53,93,73,36,30.17,30.11,30.05,10,10,7,6,3,,0.00,1,,323
2012-10-6,84,70,57,65,61,55,100,78,46,30.05,29.98,29.91,10,8,2,10,2,,0.01,0,,225
2012-10-7,80,68,57,70,64,53,94,85,62,30.12,30.00,29.95,10,6,0,23,5,29,0.71,5,Fog-Rain-Thunderstorm,9
2012-10-8,66,60,53,59,54,50,100,87,75,30.18,30.11,30.04,10,8,1,13,10,21,0.06,8,Rain,13
2012-10-9,59,56,53,54,53,51,100,92,81,30.12,30.08,30.05,10,5,1,12,8,,0.01,8,,334
2012-10-10,71,63,55,54,53,51,94,79,49,30.11,30.07,30.00,10,10,6,12,6,,0.00,4,,274
2012-10-11,71,60,51,52,48,44,93,70,42,30.29,30.23,30.12,10,10,5,14,7,,0.00,0,,360
2012-10-12,73,60,46,53,48,44,93,68,37,30.33,30.23,30.16,10,9,3,13,3,,0.01,0,,338
2012-10-13,71,60,50,50,47,44,83,64,42,30.44,30.39,30.33,10,10,10,12,7,,0.00,0,,50
2012-10-14,81,65,51,60,55,48,93,77,45,30.35,30.22,30.09,10,10,10,10,3,,0.00,0,,119
2012-10-15,81,68,55,66,60,54,100,82,52,30.06,29.90,29.75,10,8,0,12,3,17,0.01,3,Fog-Thunderstorm,241
2012-10-16,70,60,50,54,47,44,93,64,40,29.96,29.90,29.82,10,10,10,16,10,18,0.00,0,,349
2012-10-17,69,57,46,53,49,45,93,78,48,30.04,29.99,29.95,10,10,9,6,1,,0.01,2,,105
2012-10-18,79,64,50,66,60,48,100,85,60,29.96,29.89,29.83,10,8,0,9,2,16,0.00,3,Fog,120
2012-10-19,82,70,59,67,64,52,100,83,60,29.83,29.79,29.74,10,7,0,9,4,,0.15,4,Fog-Rain,214
2012-10-20,75,63,51,53,47,40,90,65,29,29.94,29.85,29.81,10,10,10,13,5,,0.00,0,,248
2012-10-21,71,59,48,49,45,42,89,67,41,30.16,30.07,29.94,10,10,10,9,5,,0.00,0,,343
2012-10-22,73,58,42,50,44,39,93,70,33,30.25,30.19,30.16,10,10,10,6,1,,0.01,0,,342
2012-10-23,77,60,45,54,49,43,93,72,40,30.23,30.18,30.14,10,10,6,9,2,,0.01,0,,156
2012-10-24,82,66,52,63,58,48,94,79,45,30.21,30.16,30.12,10,8,1,8,1,,0.01,0,,208
2012-10-25,82,68,55,64,57,54,94,86,45,30.18,30.14,30.10,10,4,0,8,1,,0.00,3,Fog,90
2012-10-26,77,68,60,65,61,57,90,81,64,30.09,29.98,29.84,10,8,2,16,9,29,0.01,5,Rain,16
2012-10-27,69,66,63,63,62,59,88,86,81,29.82,29.62,29.53,10,8,4,24,18,38,1.32,7,Rain,17
2012-10-28,62,60,57,58,54,48,88,80,63,29.51,29.47,29.44,10,7,2,29,23,39,1.75,8,Rain,351
2012-10-29,57,52,48,50,44,36,86,72,61,29.48,29.44,29.39,10,10,4,25,19,37,0.01,8,Rain,292
2012-10-30,57,50,46,38,35,32,66,54,40,29.67,29.52,29.40,10,10,10,18,12,30,0.00,6,,249
2012-10-31,61,50,41,44,37,34,83,63,41,29.81,29.73,29.68,10,10,10,15,7,21,0.00,3,,249